Zametcino, Russia
Current Conditions -  °F | °C
As of 2:00 AM on Tuesday 21 Oct 2014 (Local Time) from UUOO Reporting Station
Overcast Overcast  
Wind Chill: 50°   Ceiling: 1000
Heat Index: 50°   Visibility: 4mi
Dew Point: 48°   Wind: 9mph
Humidity: 94%   Direction: 260°W
Pressure: 29.5"   Gusts: 16mph
Location:  53.48°N, 42.63°E
Report Text: UUOO 202300Z 26004G07MPS 7000 OVC010 10/09 Q0999 NOSIG RMK 30290248
Loading
Personal Weather Stations






























Interactive Weather Map
Tropical Storm Tracking
New forecast layout! Learn more

10-Day Weather Forecast

Advertisements
Track Severe Weather on mobile